createdAt,value
2022-12-18T00:01:32.523Z,23.63
2022-12-18T00:05:25.376Z,23.47
2022-12-18T00:09:18.743Z,22.60
2022-12-18T00:13:11.830Z,21.97
2022-12-18T00:17:04.390Z,23.40
2022-12-18T00:21:01.721Z,23.87
2022-12-18T00:24:54.131Z,21.80
2022-12-18T00:28:47.572Z,22.90
2022-12-18T00:32:40.146Z,22.27
2022-12-18T00:36:35.162Z,21.47
2022-12-18T00:40:27.785Z,22.93
2022-12-18T00:44:20.778Z,23.03
2022-12-18T00:48:13.323Z,22.37
2022-12-18T00:52:06.054Z,22.30
2022-12-18T00:55:58.505Z,22.77
2022-12-18T00:59:50.947Z,22.17
2022-12-18T01:03:43.849Z,23.60
2022-12-18T01:07:36.683Z,24.13
2022-12-18T01:11:29.264Z,24.43
2022-12-18T01:15:21.985Z,22.57
2022-12-18T01:19:14.857Z,25.53
2022-12-18T01:23:07.500Z,23.47
2022-12-18T01:27:00.186Z,24.53
2022-12-18T01:30:52.725Z,23.67
2022-12-18T01:34:45.324Z,22.37
2022-12-18T01:38:37.869Z,22.13
2022-12-18T01:42:30.495Z,23.90
2022-12-18T01:46:27.686Z,23.37
2022-12-18T01:50:25.749Z,24.08
2022-12-18T01:54:18.529Z,22.80
2022-12-18T01:58:11.527Z,24.53
2022-12-18T02:02:05.017Z,23.97
2022-12-18T02:06:08.398Z,24.07
2022-12-18T02:10:03.852Z,24.17
2022-12-18T02:14:02.792Z,23.33
2022-12-18T02:18:07.594Z,24.23
2022-12-18T02:22:06.435Z,23.80
2022-12-18T02:26:12.571Z,22.03
2022-12-18T02:30:07.387Z,23.07
2022-12-18T02:34:04.210Z,22.90
2022-12-18T02:37:57.672Z,24.47
2022-12-18T02:41:51.545Z,21.70
2022-12-18T02:45:49.672Z,22.73
2022-12-18T02:49:45.491Z,23.07
2022-12-18T02:53:45.160Z,21.37
2022-12-18T02:57:55.069Z,21.70
2022-12-18T03:02:04.003Z,21.63
2022-12-18T03:06:10.879Z,21.03
2022-12-18T03:10:04.645Z,21.17
2022-12-18T03:13:59.148Z,21.40
2022-12-18T03:18:10.136Z,20.80
2022-12-18T03:22:07.241Z,21.27
2022-12-18T03:26:07.711Z,21.10
2022-12-18T03:30:11.490Z,21.43
2022-12-18T03:34:10.206Z,21.73
2022-12-18T03:38:02.866Z,20.43
2022-12-18T03:42:07.631Z,22.03
2022-12-18T03:46:13.493Z,22.33
2022-12-18T03:50:38.860Z,22.17
2022-12-18T03:54:32.346Z,22.77
2022-12-18T03:58:27.331Z,21.47
2022-12-18T04:02:21.244Z,20.77
2022-12-18T04:06:15.936Z,21.33
2022-12-18T04:10:14.076Z,21.60
2022-12-18T04:14:07.486Z,21.13
2022-12-18T04:18:00.324Z,20.80
2022-12-18T04:21:52.982Z,21.53
2022-12-18T04:25:46.412Z,21.80
2022-12-18T04:29:38.896Z,23.07
2022-12-18T04:33:31.352Z,22.60
2022-12-18T04:37:24.009Z,22.67
2022-12-18T04:41:16.909Z,22.93
2022-12-18T04:45:10.055Z,22.77
2022-12-18T04:49:02.775Z,23.17
2022-12-18T04:52:55.565Z,24.03
2022-12-18T04:56:48.244Z,22.97
2022-12-18T05:00:40.878Z,23.80
2022-12-18T05:04:33.545Z,23.03
2022-12-18T05:08:26.064Z,24.77
2022-12-18T05:12:18.850Z,23.70
2022-12-18T05:16:12.406Z,24.30
2022-12-18T05:20:05.513Z,23.97
2022-12-18T05:23:58.738Z,23.53
2022-12-18T05:27:51.095Z,25.13
2022-12-18T05:31:43.753Z,25.20
2022-12-18T05:35:37.034Z,24.90
2022-12-18T05:39:29.784Z,25.73
2022-12-18T05:43:23.686Z,24.23
2022-12-18T05:47:16.204Z,24.27
2022-12-18T05:51:11.976Z,23.77
2022-12-18T05:55:06.067Z,24.30
2022-12-18T05:58:58.667Z,23.07
2022-12-18T06:02:51.315Z,23.67
2022-12-18T06:06:44.080Z,24.87
2022-12-18T06:10:37.491Z,23.90
2022-12-18T06:14:30.136Z,23.07
2022-12-18T06:18:22.700Z,25.17
2022-12-18T06:22:15.378Z,24.00
2022-12-18T06:26:10.789Z,22.90
2022-12-18T06:30:05.080Z,23.70
2022-12-18T06:33:57.553Z,23.10
2022-12-18T06:37:50.339Z,24.37
2022-12-18T06:41:43.557Z,23.77
2022-12-18T06:45:36.133Z,24.40
2022-12-18T06:49:30.655Z,24.50
2022-12-18T06:53:23.758Z,23.73
2022-12-18T06:57:16.599Z,22.10
2022-12-18T07:01:11.679Z,23.57
2022-12-18T07:05:10.686Z,26.40
2022-12-18T07:09:04.038Z,23.83
2022-12-18T07:12:57.257Z,23.87
2022-12-18T07:16:49.953Z,22.27
2022-12-18T07:20:42.634Z,22.77
2022-12-18T07:24:36.553Z,23.30
2022-12-18T07:28:29.154Z,23.80
2022-12-18T07:32:21.885Z,24.43
2022-12-18T07:36:15.718Z,26.57
2022-12-18T07:40:09.384Z,28.47
2022-12-18T07:44:01.978Z,26.67
2022-12-18T07:47:54.864Z,25.93
2022-12-18T07:51:50.260Z,27.83
2022-12-18T07:56:17.759Z,27.50
2022-12-18T07:59:56.967Z,27.23
2022-12-18T08:03:50.199Z,28.47
2022-12-18T08:07:44.906Z,27.83
2022-12-18T08:11:37.739Z,28.97
2022-12-18T08:15:30.537Z,29.57
2022-12-18T08:19:23.164Z,30.80
2022-12-18T08:23:15.901Z,29.23
2022-12-18T08:31:22.163Z,27.20
2022-12-18T08:35:18.715Z,27.77
2022-12-18T08:39:11.283Z,27.67
2022-12-18T08:43:22.898Z,30.60
2022-12-18T08:47:15.865Z,29.70
2022-12-18T08:51:10.758Z,29.33
2022-12-18T08:55:03.432Z,28.57
2022-12-18T08:58:56.253Z,27.60
2022-12-18T09:02:49.053Z,29.27
2022-12-18T09:06:42.474Z,29.03
2022-12-18T09:10:40.185Z,28.17
2022-12-18T09:14:35.858Z,37.47
2022-12-18T09:18:28.532Z,28.63
2022-12-18T09:22:21.952Z,28.10
2022-12-18T09:26:14.564Z,28.03
2022-12-18T09:30:08.307Z,29.20
2022-12-18T09:34:00.965Z,27.43
2022-12-18T09:37:54.506Z,27.97
2022-12-18T09:41:54.828Z,28.13
2022-12-18T09:45:52.875Z,30.83
2022-12-18T09:49:52.318Z,29.53
2022-12-18T09:53:52.072Z,28.40
2022-12-18T09:57:52.540Z,26.87
2022-12-18T10:01:47.419Z,27.23
2022-12-18T10:06:28.271Z,28.97
2022-12-18T10:10:48.367Z,26.73
2022-12-18T10:14:56.931Z,26.53
2022-12-18T10:23:11.245Z,26.67
2022-12-18T10:27:17.739Z,28.70
2022-12-18T10:31:18.324Z,29.42
2022-12-18T10:35:21.892Z,30.87
2022-12-18T10:39:27.370Z,27.73
2022-12-18T10:43:24.697Z,25.13
2022-12-18T10:47:20.174Z,24.92
2022-12-18T10:51:25.244Z,25.43
2022-12-18T10:55:19.193Z,27.27
2022-12-18T10:59:18.033Z,29.27
2022-12-18T11:03:39.016Z,29.60
2022-12-18T11:07:50.430Z,29.73
2022-12-18T11:11:50.288Z,27.65
2022-12-18T11:15:43.463Z,27.45
2022-12-18T11:19:38.843Z,27.98
2022-12-18T11:23:31.422Z,27.08
2022-12-18T11:27:24.336Z,25.63
2022-12-18T11:31:29.497Z,25.88
2022-12-18T11:35:30.862Z,25.75
2022-12-18T11:39:47.612Z,26.67
2022-12-18T11:43:48.816Z,25.58
2022-12-18T11:47:53.592Z,24.65
2022-12-18T11:52:03.971Z,25.95
2022-12-18T11:56:18.667Z,26.15
2022-12-18T12:00:19.991Z,24.90
2022-12-18T12:04:34.463Z,22.73
2022-12-18T12:08:54.875Z,21.98
2022-12-18T12:13:24.994Z,23.52
2022-12-18T12:17:50.012Z,23.83
2022-12-18T12:21:47.479Z,22.30
2022-12-18T12:25:44.260Z,22.23
2022-12-18T12:29:57.573Z,23.75
2022-12-18T12:34:11.167Z,22.50
2022-12-18T12:38:21.770Z,23.65
2022-12-18T12:43:08.145Z,22.73
2022-12-18T12:47:15.713Z,24.42
2022-12-18T12:56:00.664Z,23.33
2022-12-18T13:00:18.785Z,25.40
2022-12-18T13:05:01.685Z,22.60
2022-12-18T13:09:06.975Z,23.50
2022-12-18T13:13:23.730Z,22.52
2022-12-18T13:17:46.827Z,24.48
2022-12-18T13:22:00.082Z,25.42
2022-12-18T13:26:28.895Z,36.60
2022-12-18T13:35:25.678Z,91.50
2022-12-18T13:44:14.253Z,35.55
2022-12-18T13:48:38.448Z,35.72
2022-12-18T13:53:01.578Z,25.20
2022-12-18T14:01:06.174Z,25.73
2022-12-18T14:05:29.780Z,23.65
2022-12-18T14:09:48.461Z,23.38
2022-12-18T14:13:44.506Z,23.88
2022-12-18T14:17:39.602Z,23.75
2022-12-18T14:21:49.890Z,23.05
2022-12-18T14:26:11.836Z,23.10
2022-12-18T14:30:26.687Z,21.88
2022-12-18T14:34:20.532Z,22.38
2022-12-18T14:38:26.008Z,22.33
2022-12-18T14:42:18.783Z,21.83
2022-12-18T14:46:35.525Z,22.52
2022-12-18T14:50:28.843Z,22.73
2022-12-18T14:54:23.189Z,23.17
2022-12-18T14:58:18.962Z,24.35
2022-12-18T15:02:24.166Z,25.48
2022-12-18T15:06:46.017Z,31.35
2022-12-18T15:10:49.218Z,25.33
2022-12-18T15:14:48.457Z,26.90
2022-12-18T15:18:46.795Z,25.92
2022-12-18T15:22:39.751Z,25.77
2022-12-18T15:26:41.001Z,27.50
2022-12-18T15:30:35.225Z,28.20
2022-12-18T15:34:29.371Z,25.95
2022-12-18T15:38:22.390Z,27.23
2022-12-18T15:42:34.396Z,27.87
2022-12-18T15:46:28.481Z,31.23
2022-12-18T15:50:23.742Z,31.63
2022-12-18T15:54:17.514Z,33.43
2022-12-18T15:58:12.919Z,33.70
2022-12-18T16:02:19.336Z,32.75
2022-12-18T16:06:12.419Z,33.63
2022-12-18T16:10:06.635Z,34.00
2022-12-18T16:14:00.293Z,37.87
2022-12-18T16:17:53.972Z,36.33
2022-12-18T16:21:49.503Z,38.00
2022-12-18T16:25:42.586Z,35.50
2022-12-18T16:29:36.205Z,35.57
2022-12-18T16:33:29.744Z,37.07
2022-12-18T16:37:23.465Z,37.07
2022-12-18T16:41:33.151Z,35.43
2022-12-18T16:45:27.806Z,34.93
2022-12-18T16:49:23.185Z,31.83
2022-12-18T16:53:16.913Z,30.73
2022-12-18T16:57:16.988Z,30.07
2022-12-18T17:01:12.276Z,28.80
2022-12-18T17:05:07.219Z,35.47
2022-12-18T17:09:03.444Z,35.23
2022-12-18T17:12:57.225Z,34.37
2022-12-18T17:17:19.316Z,32.23
2022-12-18T17:21:10.143Z,31.60
2022-12-18T17:25:04.043Z,34.50
2022-12-18T17:28:58.615Z,31.87
2022-12-18T17:32:51.925Z,31.30
2022-12-18T17:36:47.001Z,36.10
2022-12-18T17:40:46.465Z,45.97
2022-12-18T17:44:43.160Z,69.30
2022-12-18T17:48:36.906Z,51.30
2022-12-18T17:52:34.808Z,39.57
2022-12-18T17:56:29.291Z,38.93
2022-12-18T18:00:22.955Z,34.60
2022-12-18T18:04:17.202Z,30.27
2022-12-18T18:08:10.497Z,29.63
2022-12-18T18:12:22.784Z,29.23
2022-12-18T18:16:16.791Z,30.03
2022-12-18T18:20:11.195Z,30.93
2022-12-18T18:24:05.058Z,29.40
2022-12-18T18:27:58.349Z,32.10
2022-12-18T18:31:52.128Z,31.90
2022-12-18T18:35:54.815Z,34.97
2022-12-18T18:39:48.376Z,33.43
2022-12-18T18:43:42.458Z,36.57
2022-12-18T18:47:36.615Z,36.77
2022-12-18T18:51:34.865Z,32.97
2022-12-18T18:55:28.600Z,32.57
2022-12-18T18:59:27.501Z,31.93
2022-12-18T19:03:26.114Z,31.93
2022-12-18T19:07:29.576Z,30.47
2022-12-18T19:11:44.508Z,30.63
2022-12-18T19:15:37.911Z,28.50
2022-12-18T19:19:32.211Z,27.77
2022-12-18T19:23:26.952Z,29.90
2022-12-18T19:27:20.826Z,28.93
2022-12-18T19:31:20.061Z,27.20
2022-12-18T19:35:18.007Z,28.20
2022-12-18T19:39:14.483Z,25.53
2022-12-18T19:43:09.051Z,25.20
2022-12-18T19:47:02.744Z,25.30
2022-12-18T19:50:55.843Z,25.87
2022-12-18T19:54:50.902Z,28.13
2022-12-18T19:58:45.662Z,30.93
2022-12-18T20:02:39.104Z,27.10
2022-12-18T20:06:33.448Z,46.47
2022-12-18T20:10:26.683Z,36.87
2022-12-18T20:14:23.527Z,35.03
2022-12-18T20:18:17.109Z,26.13
2022-12-18T20:22:13.854Z,26.70
2022-12-18T20:26:07.983Z,28.43
2022-12-18T20:30:02.085Z,27.97
2022-12-18T20:34:01.582Z,27.80
2022-12-18T20:37:57.686Z,30.83
2022-12-18T20:41:52.081Z,30.87
2022-12-18T20:45:44.921Z,36.67
2022-12-18T20:49:43.292Z,27.43
2022-12-18T20:53:41.915Z,30.50
2022-12-18T20:57:35.703Z,29.50
2022-12-18T21:01:31.805Z,26.97
2022-12-18T21:05:28.403Z,27.63
2022-12-18T21:09:21.948Z,30.33
2022-12-18T21:13:14.447Z,27.60
2022-12-18T21:17:07.552Z,26.93
2022-12-18T21:21:00.607Z,26.97
2022-12-18T21:24:53.999Z,28.90
2022-12-18T21:28:48.142Z,27.30
2022-12-18T21:32:41.244Z,28.13
2022-12-18T21:36:35.784Z,26.83
2022-12-18T21:40:28.522Z,27.10
2022-12-18T21:44:21.220Z,26.37
2022-12-18T21:48:14.129Z,28.70
2022-12-18T21:52:07.360Z,27.43
2022-12-18T21:56:00.763Z,29.27
2022-12-18T21:59:54.356Z,27.10
2022-12-18T22:03:47.312Z,28.07
2022-12-18T22:07:39.873Z,27.20
2022-12-18T22:11:32.956Z,28.70
2022-12-18T22:15:25.651Z,26.80
2022-12-18T22:19:19.659Z,26.83
2022-12-18T22:23:13.286Z,25.87
2022-12-18T22:27:05.601Z,26.47
2022-12-18T22:30:59.507Z,26.43
2022-12-18T22:34:52.622Z,26.60
2022-12-18T22:38:47.501Z,26.83
2022-12-18T22:42:40.850Z,26.57
2022-12-18T22:46:36.945Z,28.17
2022-12-18T22:50:29.731Z,26.63
2022-12-18T22:54:22.620Z,27.73
2022-12-18T22:58:15.230Z,27.90
2022-12-18T23:02:08.733Z,30.40
2022-12-18T23:06:09.546Z,28.77
2022-12-18T23:10:02.197Z,30.67
2022-12-18T23:13:56.609Z,30.33
2022-12-18T23:17:51.328Z,29.63
2022-12-18T23:21:44.213Z,26.33
2022-12-18T23:25:36.849Z,28.87
2022-12-18T23:29:29.547Z,29.17
2022-12-18T23:33:22.061Z,28.13
2022-12-18T23:37:35.360Z,27.70
2022-12-18T23:41:31.064Z,27.83
2022-12-18T23:45:23.774Z,27.87
2022-12-18T23:49:16.582Z,28.10
2022-12-18T23:53:09.838Z,28.87
2022-12-18T23:57:02.890Z,28.63
